sensor_id;sensor_type;location;lat;lon;timestamp;temperature;humidity
17421;DHT22;8828;48.800;9.540;2022-07-29T00:01:41;21.80;99.90
17421;DHT22;8828;48.800;9.540;2022-07-29T00:04:09;21.80;99.90
17421;DHT22;8828;48.800;9.540;2022-07-29T00:06:39;21.70;99.90
17421;DHT22;8828;48.800;9.540;2022-07-29T00:09:07;21.70;99.90
17421;DHT22;8828;48.800;9.540;2022-07-29T00:11:35;21.60;99.90
17421;DHT22;8828;48.800;9.540;2022-07-29T00:14:03;21.60;99.90
17421;DHT22;8828;48.800;9.540;2022-07-29T00:16:31;21.60;99.90
17421;DHT22;8828;48.800;9.540;2022-07-29T00:18:59;21.50;99.90
17421;DHT22;8828;48.800;9.540;2022-07-29T00:21:28;21.50;99.90
17421;DHT22;8828;48.800;9.540;2022-07-29T00:23:57;21.40;99.90
17421;DHT22;8828;48.800;9.540;2022-07-29T00:26:25;21.40;99.90
17421;DHT22;8828;48.800;9.540;2022-07-29T00:28:58;21.40;99.90
17421;DHT22;8828;48.800;9.540;2022-07-29T00:31:46;21.40;99.90
17421;DHT22;8828;48.800;9.540;2022-07-29T00:34:14;21.40;99.90
17421;DHT22;8828;48.800;9.540;2022-07-29T00:36:56;21.40;99.90
17421;DHT22;8828;48.800;9.540;2022-07-29T00:39:26;21.40;99.90
17421;DHT22;8828;48.800;9.540;2022-07-29T00:41:54;21.40;99.90
17421;DHT22;8828;48.800;9.540;2022-07-29T00:44:22;21.40;99.90
17421;DHT22;8828;48.800;9.540;2022-07-29T00:46:50;21.50;99.90
17421;DHT22;8828;48.800;9.540;2022-07-29T00:49:18;21.40;99.90
17421;DHT22;8828;48.800;9.540;2022-07-29T00:51:47;21.50;99.90
17421;DHT22;8828;48.800;9.540;2022-07-29T00:54:15;21.50;99.90
17421;DHT22;8828;48.800;9.540;2022-07-29T00:56:46;21.50;99.90
17421;DHT22;8828;48.800;9.540;2022-07-29T00:59:14;21.40;99.90
17421;DHT22;8828;48.800;9.540;2022-07-29T01:01:42;21.40;99.90
17421;DHT22;8828;48.800;9.540;2022-07-29T01:04:10;21.40;99.90
17421;DHT22;8828;48.800;9.540;2022-07-29T01:06:40;21.40;99.90
17421;DHT22;8828;48.800;9.540;2022-07-29T01:09:08;21.40;99.90
17421;DHT22;8828;48.800;9.540;2022-07-29T01:11:37;21.40;99.90
17421;DHT22;8828;48.800;9.540;2022-07-29T01:14:08;21.40;99.90
17421;DHT22;8828;48.800;9.540;2022-07-29T01:16:41;21.50;99.90
17421;DHT22;8828;48.800;9.540;2022-07-29T01:19:22;21.40;99.90
17421;DHT22;8828;48.800;9.540;2022-07-29T01:21:59;21.50;99.90
17421;DHT22;8828;48.800;9.540;2022-07-29T01:25:03;21.40;99.90
17421;DHT22;8828;48.800;9.540;2022-07-29T01:27:41;21.50;99.90
17421;DHT22;8828;48.800;9.540;2022-07-29T01:30:13;21.40;99.90
17421;DHT22;8828;48.800;9.540;2022-07-29T01:32:43;21.40;99.90
17421;DHT22;8828;48.800;9.540;2022-07-29T01:35:18;21.40;99.90
17421;DHT22;8828;48.800;9.540;2022-07-29T01:37:50;21.40;99.90
17421;DHT22;8828;48.800;9.540;2022-07-29T01:40:20;21.40;99.90
17421;DHT22;8828;48.800;9.540;2022-07-29T01:42:52;21.30;99.90
17421;DHT22;8828;48.800;9.540;2022-07-29T01:45:26;21.20;99.90
17421;DHT22;8828;48.800;9.540;2022-07-29T01:48:00;21.20;99.90
17421;DHT22;8828;48.800;9.540;2022-07-29T01:50:33;21.10;99.90
17421;DHT22;8828;48.800;9.540;2022-07-29T01:53:04;21.10;99.90
17421;DHT22;8828;48.800;9.540;2022-07-29T01:55:36;21.10;99.90
17421;DHT22;8828;48.800;9.540;2022-07-29T01:58:07;21.10;99.90
17421;DHT22;8828;48.800;9.540;2022-07-29T02:00:37;21.00;99.90
17421;DHT22;8828;48.800;9.540;2022-07-29T02:03:11;21.00;99.90
17421;DHT22;8828;48.800;9.540;2022-07-29T02:05:42;21.00;99.90
17421;DHT22;8828;48.800;9.540;2022-07-29T02:08:12;20.90;99.90
17421;DHT22;8828;48.800;9.540;2022-07-29T02:10:42;20.90;99.90
17421;DHT22;8828;48.800;9.540;2022-07-29T02:13:11;20.90;99.90
17421;DHT22;8828;48.800;9.540;2022-07-29T02:15:42;20.80;99.90
17421;DHT22;8828;48.800;9.540;2022-07-29T02:18:15;20.80;99.90
17421;DHT22;8828;48.800;9.540;2022-07-29T02:20:46;20.70;99.90
17421;DHT22;8828;48.800;9.540;2022-07-29T02:23:19;20.70;99.90
17421;DHT22;8828;48.800;9.540;2022-07-29T02:25:48;20.60;99.90
17421;DHT22;8828;48.800;9.540;2022-07-29T02:28:18;20.60;99.90
17421;DHT22;8828;48.800;9.540;2022-07-29T02:30:49;20.60;99.90
17421;DHT22;8828;48.800;9.540;2022-07-29T02:33:19;20.60;99.90
17421;DHT22;8828;48.800;9.540;2022-07-29T02:35:48;20.50;99.90
17421;DHT22;8828;48.800;9.540;2022-07-29T02:38:18;20.50;99.90
17421;DHT22;8828;48.800;9.540;2022-07-29T02:41:07;20.50;99.90
17421;DHT22;8828;48.800;9.540;2022-07-29T02:43:39;20.40;99.90
17421;DHT22;8828;48.800;9.540;2022-07-29T02:46:14;20.30;99.90
17421;DHT22;8828;48.800;9.540;2022-07-29T02:48:58;20.30;99.90
17421;DHT22;8828;48.800;9.540;2022-07-29T02:51:32;20.20;99.90
17421;DHT22;8828;48.800;9.540;2022-07-29T02:54:14;20.20;99.90
17421;DHT22;8828;48.800;9.540;2022-07-29T02:56:44;20.20;99.90
17421;DHT22;8828;48.800;9.540;2022-07-29T02:59:14;20.20;99.90
17421;DHT22;8828;48.800;9.540;2022-07-29T03:01:47;20.20;99.90
17421;DHT22;8828;48.800;9.540;2022-07-29T03:04:17;20.20;99.90
17421;DHT22;8828;48.800;9.540;2022-07-29T03:06:48;20.20;99.90
17421;DHT22;8828;48.800;9.540;2022-07-29T03:09:17;20.10;99.90
17421;DHT22;8828;48.800;9.540;2022-07-29T03:11:46;20.10;99.90
17421;DHT22;8828;48.800;9.540;2022-07-29T03:14:17;20.10;99.90
17421;DHT22;8828;48.800;9.540;2022-07-29T03:16:49;20.10;99.90
17421;DHT22;8828;48.800;9.540;2022-07-29T03:19:18;20.10;99.90
17421;DHT22;8828;48.800;9.540;2022-07-29T03:21:47;20.10;99.90
17421;DHT22;8828;48.800;9.540;2022-07-29T03:24:29;20.10;99.90
17421;DHT22;8828;48.800;9.540;2022-07-29T03:26:58;20.10;99.90
17421;DHT22;8828;48.800;9.540;2022-07-29T03:29:27;20.10;99.90
17421;DHT22;8828;48.800;9.540;2022-07-29T03:32:02;20.10;99.90
17421;DHT22;8828;48.800;9.540;2022-07-29T03:34:35;20.00;99.90
17421;DHT22;8828;48.800;9.540;2022-07-29T03:37:04;19.90;99.90
17421;DHT22;8828;48.800;9.540;2022-07-29T03:39:36;20.00;99.90
17421;DHT22;8828;48.800;9.540;2022-07-29T03:42:07;20.00;99.90
17421;DHT22;8828;48.800;9.540;2022-07-29T03:44:36;20.00;99.90
17421;DHT22;8828;48.800;9.540;2022-07-29T03:47:06;20.00;99.90
17421;DHT22;8828;48.800;9.540;2022-07-29T03:49:36;20.00;99.90
17421;DHT22;8828;48.800;9.540;2022-07-29T03:52:05;20.00;99.90
17421;DHT22;8828;48.800;9.540;2022-07-29T03:54:34;19.90;99.90
17421;DHT22;8828;48.800;9.540;2022-07-29T03:57:03;19.90;99.90
17421;DHT22;8828;48.800;9.540;2022-07-29T03:59:33;19.90;99.90
17421;DHT22;8828;48.800;9.540;2022-07-29T04:02:02;19.90;99.90
17421;DHT22;8828;48.800;9.540;2022-07-29T04:04:34;19.90;99.90
17421;DHT22;8828;48.800;9.540;2022-07-29T04:07:03;19.90;99.90
17421;DHT22;8828;48.800;9.540;2022-07-29T04:09:31;19.90;99.90
17421;DHT22;8828;48.800;9.540;2022-07-29T04:11:59;19.90;99.90
17421;DHT22;8828;48.800;9.540;2022-07-29T04:14:31;19.90;99.90
17421;DHT22;8828;48.800;9.540;2022-07-29T04:16:59;19.90;99.90
17421;DHT22;8828;48.800;9.540;2022-07-29T04:19:27;19.90;99.90
17421;DHT22;8828;48.800;9.540;2022-07-29T04:21:58;19.80;99.90
17421;DHT22;8828;48.800;9.540;2022-07-29T04:24:26;19.80;99.90
17421;DHT22;8828;48.800;9.540;2022-07-29T04:26:54;19.80;99.90
17421;DHT22;8828;48.800;9.540;2022-07-29T04:29:22;19.80;99.90
17421;DHT22;8828;48.800;9.540;2022-07-29T04:31:50;19.80;99.90
17421;DHT22;8828;48.800;9.540;2022-07-29T04:34:18;19.90;99.90
17421;DHT22;8828;48.800;9.540;2022-07-29T04:36:46;19.90;99.90
17421;DHT22;8828;48.800;9.540;2022-07-29T04:39:16;19.90;99.90
17421;DHT22;8828;48.800;9.540;2022-07-29T04:41:49;20.00;99.90
17421;DHT22;8828;48.800;9.540;2022-07-29T04:44:20;20.00;99.90
17421;DHT22;8828;48.800;9.540;2022-07-29T04:46:55;20.10;99.90
17421;DHT22;8828;48.800;9.540;2022-07-29T04:49:23;20.10;99.90
17421;DHT22;8828;48.800;9.540;2022-07-29T04:51:51;20.10;99.90
17421;DHT22;8828;48.800;9.540;2022-07-29T04:54:21;20.10;99.90
17421;DHT22;8828;48.800;9.540;2022-07-29T04:56:48;20.20;99.90
17421;DHT22;8828;48.800;9.540;2022-07-29T04:59:16;20.20;99.90
17421;DHT22;8828;48.800;9.540;2022-07-29T05:01:44;20.20;99.90
17421;DHT22;8828;48.800;9.540;2022-07-29T05:04:12;20.20;99.90
17421;DHT22;8828;48.800;9.540;2022-07-29T05:06:41;20.10;99.90
17421;DHT22;8828;48.800;9.540;2022-07-29T05:09:09;20.20;99.90
17421;DHT22;8828;48.800;9.540;2022-07-29T05:11:38;20.20;99.90
17421;DHT22;8828;48.800;9.540;2022-07-29T05:14:06;20.20;99.90
17421;DHT22;8828;48.800;9.540;2022-07-29T05:16:35;20.30;99.90
17421;DHT22;8828;48.800;9.540;2022-07-29T05:19:03;20.30;99.90
17421;DHT22;8828;48.800;9.540;2022-07-29T05:21:31;20.30;99.90
17421;DHT22;8828;48.800;9.540;2022-07-29T05:23:59;20.30;99.90
17421;DHT22;8828;48.800;9.540;2022-07-29T05:26:27;20.40;99.90
17421;DHT22;8828;48.800;9.540;2022-07-29T05:28:56;20.50;99.90
17421;DHT22;8828;48.800;9.540;2022-07-29T05:31:24;20.50;99.90
17421;DHT22;8828;48.800;9.540;2022-07-29T05:33:52;20.50;99.90
17421;DHT22;8828;48.800;9.540;2022-07-29T05:36:20;20.50;99.90
17421;DHT22;8828;48.800;9.540;2022-07-29T05:38:48;20.50;99.90
17421;DHT22;8828;48.800;9.540;2022-07-29T05:41:17;20.50;99.90
17421;DHT22;8828;48.800;9.540;2022-07-29T05:43:45;20.60;99.90
17421;DHT22;8828;48.800;9.540;2022-07-29T05:46:14;20.70;99.90
17421;DHT22;8828;48.800;9.540;2022-07-29T05:48:42;20.70;99.90
17421;DHT22;8828;48.800;9.540;2022-07-29T05:51:10;20.80;99.90
17421;DHT22;8828;48.800;9.540;2022-07-29T05:53:38;20.90;99.90
17421;DHT22;8828;48.800;9.540;2022-07-29T05:56:07;20.90;99.90
17421;DHT22;8828;48.800;9.540;2022-07-29T05:58:35;21.00;99.90
17421;DHT22;8828;48.800;9.540;2022-07-29T06:01:03;21.00;99.90
17421;DHT22;8828;48.800;9.540;2022-07-29T06:03:32;21.10;99.90
17421;DHT22;8828;48.800;9.540;2022-07-29T06:06:01;21.10;99.90
17421;DHT22;8828;48.800;9.540;2022-07-29T06:08:29;21.20;99.90
17421;DHT22;8828;48.800;9.540;2022-07-29T06:10:57;21.20;99.90
17421;DHT22;8828;48.800;9.540;2022-07-29T06:13:25;21.20;99.90
17421;DHT22;8828;48.800;9.540;2022-07-29T06:15:53;21.30;99.90
17421;DHT22;8828;48.800;9.540;2022-07-29T06:18:21;21.30;99.90
17421;DHT22;8828;48.800;9.540;2022-07-29T06:20:51;21.40;99.90
17421;DHT22;8828;48.800;9.540;2022-07-29T06:23:20;21.30;99.90
17421;DHT22;8828;48.800;9.540;2022-07-29T06:25:48;21.30;99.90
17421;DHT22;8828;48.800;9.540;2022-07-29T06:28:16;21.30;99.90
17421;DHT22;8828;48.800;9.540;2022-07-29T06:30:44;21.30;99.90
17421;DHT22;8828;48.800;9.540;2022-07-29T06:33:16;21.20;99.90
17421;DHT22;8828;48.800;9.540;2022-07-29T06:35:44;21.30;99.90
17421;DHT22;8828;48.800;9.540;2022-07-29T06:38:22;21.30;99.90
17421;DHT22;8828;48.800;9.540;2022-07-29T06:40:57;21.30;99.90
17421;DHT22;8828;48.800;9.540;2022-07-29T06:43:29;21.30;99.90
17421;DHT22;8828;48.800;9.540;2022-07-29T06:46:00;21.40;99.90
17421;DHT22;8828;48.800;9.540;2022-07-29T06:48:28;21.50;99.90
17421;DHT22;8828;48.800;9.540;2022-07-29T06:50:57;21.60;99.90
17421;DHT22;8828;48.800;9.540;2022-07-29T06:53:27;21.70;99.90
17421;DHT22;8828;48.800;9.540;2022-07-29T06:55:55;21.80;99.90
17421;DHT22;8828;48.800;9.540;2022-07-29T06:58:24;21.90;99.90
17421;DHT22;8828;48.800;9.540;2022-07-29T07:00:53;22.00;99.90
17421;DHT22;8828;48.800;9.540;2022-07-29T07:03:21;22.10;99.90
17421;DHT22;8828;48.800;9.540;2022-07-29T07:05:50;22.20;99.90
17421;DHT22;8828;48.800;9.540;2022-07-29T07:08:20;22.30;99.90
17421;DHT22;8828;48.800;9.540;2022-07-29T07:10:50;22.50;99.90
17421;DHT22;8828;48.800;9.540;2022-07-29T07:13:18;22.60;99.90
17421;DHT22;8828;48.800;9.540;2022-07-29T07:15:47;22.70;99.90
17421;DHT22;8828;48.800;9.540;2022-07-29T07:18:15;22.80;99.90
17421;DHT22;8828;48.800;9.540;2022-07-29T07:20:43;23.00;99.90
17421;DHT22;8828;48.800;9.540;2022-07-29T07:23:12;23.10;99.90
17421;DHT22;8828;48.800;9.540;2022-07-29T07:25:40;23.10;99.90
17421;DHT22;8828;48.800;9.540;2022-07-29T07:28:10;23.30;99.90
17421;DHT22;8828;48.800;9.540;2022-07-29T07:30:39;23.30;99.90
17421;DHT22;8828;48.800;9.540;2022-07-29T07:33:07;23.40;99.90
17421;DHT22;8828;48.800;9.540;2022-07-29T07:35:35;23.20;99.90
17421;DHT22;8828;48.800;9.540;2022-07-29T07:38:03;23.30;99.90
17421;DHT22;8828;48.800;9.540;2022-07-29T07:40:32;23.30;99.90
17421;DHT22;8828;48.800;9.540;2022-07-29T07:43:00;23.30;99.90
17421;DHT22;8828;48.800;9.540;2022-07-29T07:45:30;23.50;99.90
17421;DHT22;8828;48.800;9.540;2022-07-29T07:48:00;23.60;99.90
17421;DHT22;8828;48.800;9.540;2022-07-29T07:50:28;23.80;99.90
17421;DHT22;8828;48.800;9.540;2022-07-29T07:52:56;23.90;99.90
17421;DHT22;8828;48.800;9.540;2022-07-29T07:55:25;23.90;99.90
17421;DHT22;8828;48.800;9.540;2022-07-29T07:57:54;24.00;99.90
17421;DHT22;8828;48.800;9.540;2022-07-29T08:00:22;23.90;99.90
17421;DHT22;8828;48.800;9.540;2022-07-29T08:02:51;23.80;99.90
17421;DHT22;8828;48.800;9.540;2022-07-29T08:05:20;23.70;99.90
17421;DHT22;8828;48.800;9.540;2022-07-29T08:07:48;23.80;99.90
17421;DHT22;8828;48.800;9.540;2022-07-29T08:10:17;23.90;99.90
17421;DHT22;8828;48.800;9.540;2022-07-29T08:13:07;24.00;99.90
17421;DHT22;8828;48.800;9.540;2022-07-29T08:15:35;24.10;99.90
17421;DHT22;8828;48.800;9.540;2022-07-29T08:18:04;24.20;99.90
17421;DHT22;8828;48.800;9.540;2022-07-29T08:20:35;24.30;99.90
17421;DHT22;8828;48.800;9.540;2022-07-29T08:23:06;24.40;99.90
17421;DHT22;8828;48.800;9.540;2022-07-29T08:25:35;24.50;99.90
17421;DHT22;8828;48.800;9.540;2022-07-29T08:28:06;24.50;99.90
17421;DHT22;8828;48.800;9.540;2022-07-29T08:30:34;24.60;99.90
17421;DHT22;8828;48.800;9.540;2022-07-29T08:33:03;24.70;99.90
17421;DHT22;8828;48.800;9.540;2022-07-29T08:35:31;24.70;99.90
17421;DHT22;8828;48.800;9.540;2022-07-29T08:38:02;24.80;99.90
17421;DHT22;8828;48.800;9.540;2022-07-29T08:40:31;25.00;99.90
17421;DHT22;8828;48.800;9.540;2022-07-29T08:43:03;25.10;99.90
17421;DHT22;8828;48.800;9.540;2022-07-29T08:45:41;25.10;99.90
17421;DHT22;8828;48.800;9.540;2022-07-29T08:48:15;25.10;99.90
17421;DHT22;8828;48.800;9.540;2022-07-29T08:50:44;25.20;99.90
17421;DHT22;8828;48.800;9.540;2022-07-29T08:53:14;25.20;99.90
17421;DHT22;8828;48.800;9.540;2022-07-29T08:55:44;25.20;99.90
17421;DHT22;8828;48.800;9.540;2022-07-29T08:58:14;25.20;99.90
17421;DHT22;8828;48.800;9.540;2022-07-29T09:00:51;25.30;99.90
17421;DHT22;8828;48.800;9.540;2022-07-29T09:03:24;25.40;99.90
17421;DHT22;8828;48.800;9.540;2022-07-29T09:05:53;25.40;99.90
17421;DHT22;8828;48.800;9.540;2022-07-29T09:08:21;25.50;99.90
17421;DHT22;8828;48.800;9.540;2022-07-29T09:10:50;25.60;99.90
17421;DHT22;8828;48.800;9.540;2022-07-29T09:13:18;25.60;99.90
17421;DHT22;8828;48.800;9.540;2022-07-29T09:15:46;25.70;99.90
17421;DHT22;8828;48.800;9.540;2022-07-29T09:18:35;25.70;99.90
17421;DHT22;8828;48.800;9.540;2022-07-29T09:21:03;25.80;99.90
17421;DHT22;8828;48.800;9.540;2022-07-29T09:24:03;25.80;99.90
17421;DHT22;8828;48.800;9.540;2022-07-29T09:26:33;25.90;99.90
17421;DHT22;8828;48.800;9.540;2022-07-29T09:29:08;26.00;99.90
17421;DHT22;8828;48.800;9.540;2022-07-29T09:31:38;26.10;99.90
17421;DHT22;8828;48.800;9.540;2022-07-29T09:34:08;26.20;99.90
17421;DHT22;8828;48.800;9.540;2022-07-29T09:36:41;26.30;99.90
17421;DHT22;8828;48.800;9.540;2022-07-29T09:39:09;26.40;99.90
17421;DHT22;8828;48.800;9.540;2022-07-29T09:41:47;26.50;99.90
17421;DHT22;8828;48.800;9.540;2022-07-29T09:44:16;26.60;99.90
17421;DHT22;8828;48.800;9.540;2022-07-29T09:46:55;26.60;99.90
17421;DHT22;8828;48.800;9.540;2022-07-29T09:49:26;26.60;99.90
17421;DHT22;8828;48.800;9.540;2022-07-29T09:52:03;26.80;99.90
17421;DHT22;8828;48.800;9.540;2022-07-29T09:54:32;26.90;99.90
17421;DHT22;8828;48.800;9.540;2022-07-29T09:57:04;27.20;99.90
17421;DHT22;8828;48.800;9.540;2022-07-29T09:59:33;27.60;99.90
17421;DHT22;8828;48.800;9.540;2022-07-29T10:02:01;27.90;99.90
17421;DHT22;8828;48.800;9.540;2022-07-29T10:04:41;28.40;99.90
17421;DHT22;8828;48.800;9.540;2022-07-29T10:07:09;28.90;99.90
17421;DHT22;8828;48.800;9.540;2022-07-29T10:09:37;29.40;99.90
17421;DHT22;8828;48.800;9.540;2022-07-29T10:12:08;29.70;99.90
17421;DHT22;8828;48.800;9.540;2022-07-29T10:14:37;30.10;99.90
17421;DHT22;8828;48.800;9.540;2022-07-29T10:17:07;30.40;99.90
17421;DHT22;8828;48.800;9.540;2022-07-29T10:19:37;30.60;99.30
17421;DHT22;8828;48.800;9.540;2022-07-29T10:22:08;30.80;98.20
17421;DHT22;8828;48.800;9.540;2022-07-29T10:24:37;30.90;97.50
17421;DHT22;8828;48.800;9.540;2022-07-29T10:27:08;31.00;97.60
17421;DHT22;8828;48.800;9.540;2022-07-29T10:29:36;31.10;96.50
17421;DHT22;8828;48.800;9.540;2022-07-29T10:32:15;31.30;95.70
17421;DHT22;8828;48.800;9.540;2022-07-29T10:34:57;31.30;94.70
17421;DHT22;8828;48.800;9.540;2022-07-29T10:37:39;31.30;94.80
17421;DHT22;8828;48.800;9.540;2022-07-29T10:40:21;31.30;94.00
17421;DHT22;8828;48.800;9.540;2022-07-29T10:43:18;31.40;94.10
17421;DHT22;8828;48.800;9.540;2022-07-29T10:45:48;31.60;93.40
17421;DHT22;8828;48.800;9.540;2022-07-29T10:48:18;31.70;93.40
17421;DHT22;8828;48.800;9.540;2022-07-29T10:50:53;31.80;92.50
17421;DHT22;8828;48.800;9.540;2022-07-29T10:53:24;31.90;92.20
17421;DHT22;8828;48.800;9.540;2022-07-29T10:55:59;31.90;92.10
17421;DHT22;8828;48.800;9.540;2022-07-29T10:58:32;31.90;91.00
17421;DHT22;8828;48.800;9.540;2022-07-29T11:01:27;31.90;91.20
17421;DHT22;8828;48.800;9.540;2022-07-29T11:04:16;32.00;91.00
17421;DHT22;8828;48.800;9.540;2022-07-29T11:07:06;32.00;91.20
17421;DHT22;8828;48.800;9.540;2022-07-29T11:09:36;32.00;91.40
17421;DHT22;8828;48.800;9.540;2022-07-29T11:15:13;31.80;91.80
17421;DHT22;8828;48.800;9.540;2022-07-29T11:18:07;31.60;90.80
17421;DHT22;8828;48.800;9.540;2022-07-29T11:20:43;31.40;90.40
17421;DHT22;8828;48.800;9.540;2022-07-29T11:23:21;31.20;91.10
17421;DHT22;8828;48.800;9.540;2022-07-29T11:26:19;30.90;91.80
17421;DHT22;8828;48.800;9.540;2022-07-29T11:28:51;30.70;91.70
17421;DHT22;8828;48.800;9.540;2022-07-29T11:31:36;30.50;91.90
17421;DHT22;8828;48.800;9.540;2022-07-29T11:34:24;30.30;91.50
17421;DHT22;8828;48.800;9.540;2022-07-29T11:37:20;30.00;92.20
17421;DHT22;8828;48.800;9.540;2022-07-29T11:40:24;29.80;92.80
17421;DHT22;8828;48.800;9.540;2022-07-29T11:42:53;29.70;92.70
17421;DHT22;8828;48.800;9.540;2022-07-29T11:45:26;29.50;92.90
17421;DHT22;8828;48.800;9.540;2022-07-29T11:48:16;29.40;93.00
17421;DHT22;8828;48.800;9.540;2022-07-29T11:50:56;29.20;92.70
17421;DHT22;8828;48.800;9.540;2022-07-29T11:53:24;29.10;93.10
17421;DHT22;8828;48.800;9.540;2022-07-29T11:55:59;28.90;93.30
17421;DHT22;8828;48.800;9.540;2022-07-29T11:58:30;28.80;93.80
17421;DHT22;8828;48.800;9.540;2022-07-29T12:00:59;28.60;94.20
17421;DHT22;8828;48.800;9.540;2022-07-29T12:03:31;28.50;95.20
17421;DHT22;8828;48.800;9.540;2022-07-29T12:06:03;28.50;96.20
17421;DHT22;8828;48.800;9.540;2022-07-29T12:08:40;28.40;97.00
17421;DHT22;8828;48.800;9.540;2022-07-29T12:11:16;28.30;97.00
17421;DHT22;8828;48.800;9.540;2022-07-29T12:13:49;28.20;97.40
17421;DHT22;8828;48.800;9.540;2022-07-29T12:16:17;28.10;98.10
17421;DHT22;8828;48.800;9.540;2022-07-29T12:18:59;28.00;99.20
17421;DHT22;8828;48.800;9.540;2022-07-29T12:21:28;28.00;99.90
17421;DHT22;8828;48.800;9.540;2022-07-29T12:23:57;27.90;99.90
17421;DHT22;8828;48.800;9.540;2022-07-29T12:26:35;27.80;99.90
17421;DHT22;8828;48.800;9.540;2022-07-29T12:29:07;27.80;99.90
17421;DHT22;8828;48.800;9.540;2022-07-29T12:32:01;27.80;99.90
17421;DHT22;8828;48.800;9.540;2022-07-29T12:34:31;27.90;99.90
17421;DHT22;8828;48.800;9.540;2022-07-29T12:37:00;27.90;99.90
17421;DHT22;8828;48.800;9.540;2022-07-29T12:42:34;28.10;99.90
17421;DHT22;8828;48.800;9.540;2022-07-29T12:45:04;28.20;99.90
17421;DHT22;8828;48.800;9.540;2022-07-29T12:47:33;28.20;99.90
17421;DHT22;8828;48.800;9.540;2022-07-29T12:50:18;28.30;99.90
17421;DHT22;8828;48.800;9.540;2022-07-29T12:52:52;28.30;99.90
17421;DHT22;8828;48.800;9.540;2022-07-29T12:55:38;28.20;99.90
17421;DHT22;8828;48.800;9.540;2022-07-29T12:58:06;28.10;99.90
17421;DHT22;8828;48.800;9.540;2022-07-29T13:00:36;28.00;99.90
17421;DHT22;8828;48.800;9.540;2022-07-29T13:03:04;27.80;99.90
17421;DHT22;8828;48.800;9.540;2022-07-29T13:05:41;27.70;99.90
17421;DHT22;8828;48.800;9.540;2022-07-29T13:08:16;27.60;99.90
17421;DHT22;8828;48.800;9.540;2022-07-29T13:10:48;27.50;99.90
17421;DHT22;8828;48.800;9.540;2022-07-29T13:13:16;27.30;99.90
17421;DHT22;8828;48.800;9.540;2022-07-29T13:15:45;27.00;99.90
17421;DHT22;8828;48.800;9.540;2022-07-29T13:21:31;26.50;99.90
17421;DHT22;8828;48.800;9.540;2022-07-29T13:23:59;26.20;99.90
17421;DHT22;8828;48.800;9.540;2022-07-29T13:29:51;25.90;99.90
17421;DHT22;8828;48.800;9.540;2022-07-29T13:32:20;25.60;99.90
17421;DHT22;8828;48.800;9.540;2022-07-29T13:34:55;25.40;99.90
17421;DHT22;8828;48.800;9.540;2022-07-29T13:37:24;25.30;99.90
17421;DHT22;8828;48.800;9.540;2022-07-29T13:39:52;25.20;99.90
17421;DHT22;8828;48.800;9.540;2022-07-29T13:42:21;25.10;99.90
17421;DHT22;8828;48.800;9.540;2022-07-29T13:44:49;25.00;99.90
17421;DHT22;8828;48.800;9.540;2022-07-29T13:47:22;24.90;99.90
17421;DHT22;8828;48.800;9.540;2022-07-29T13:49:58;24.90;99.90
17421;DHT22;8828;48.800;9.540;2022-07-29T13:52:26;24.80;99.90
17421;DHT22;8828;48.800;9.540;2022-07-29T13:54:57;24.70;99.90
17421;DHT22;8828;48.800;9.540;2022-07-29T13:57:25;24.60;99.90
17421;DHT22;8828;48.800;9.540;2022-07-29T13:59:53;24.60;99.90
17421;DHT22;8828;48.800;9.540;2022-07-29T14:02:23;24.60;99.90
17421;DHT22;8828;48.800;9.540;2022-07-29T14:04:52;24.60;99.90
17421;DHT22;8828;48.800;9.540;2022-07-29T14:07:20;24.50;99.90
17421;DHT22;8828;48.800;9.540;2022-07-29T14:09:49;24.50;99.90
17421;DHT22;8828;48.800;9.540;2022-07-29T14:12:17;24.50;99.90
17421;DHT22;8828;48.800;9.540;2022-07-29T14:14:45;24.40;99.90
17421;DHT22;8828;48.800;9.540;2022-07-29T14:17:13;24.40;99.90
17421;DHT22;8828;48.800;9.540;2022-07-29T14:19:43;24.40;99.90
17421;DHT22;8828;48.800;9.540;2022-07-29T14:22:11;24.30;99.90
17421;DHT22;8828;48.800;9.540;2022-07-29T14:24:39;24.30;99.90
17421;DHT22;8828;48.800;9.540;2022-07-29T14:27:08;24.20;99.90
17421;DHT22;8828;48.800;9.540;2022-07-29T14:29:36;24.10;99.90
17421;DHT22;8828;48.800;9.540;2022-07-29T14:32:05;24.20;99.90
17421;DHT22;8828;48.800;9.540;2022-07-29T14:34:34;24.10;99.90
17421;DHT22;8828;48.800;9.540;2022-07-29T14:37:04;24.10;99.90
17421;DHT22;8828;48.800;9.540;2022-07-29T14:39:33;24.10;99.90
17421;DHT22;8828;48.800;9.540;2022-07-29T14:42:09;24.10;99.90
17421;DHT22;8828;48.800;9.540;2022-07-29T14:44:38;24.10;99.90
17421;DHT22;8828;48.800;9.540;2022-07-29T14:47:08;24.10;99.90
17421;DHT22;8828;48.800;9.540;2022-07-29T14:49:36;24.10;99.90
17421;DHT22;8828;48.800;9.540;2022-07-29T14:52:06;24.10;99.90
17421;DHT22;8828;48.800;9.540;2022-07-29T14:54:34;24.00;99.90
17421;DHT22;8828;48.800;9.540;2022-07-29T14:57:02;24.00;99.90
17421;DHT22;8828;48.800;9.540;2022-07-29T14:59:30;24.10;99.90
17421;DHT22;8828;48.800;9.540;2022-07-29T15:01:58;24.10;99.90
17421;DHT22;8828;48.800;9.540;2022-07-29T15:04:27;24.10;99.90
17421;DHT22;8828;48.800;9.540;2022-07-29T15:06:55;24.10;99.90
17421;DHT22;8828;48.800;9.540;2022-07-29T15:09:24;24.20;99.90
17421;DHT22;8828;48.800;9.540;2022-07-29T15:11:52;24.20;99.90
17421;DHT22;8828;48.800;9.540;2022-07-29T15:14:20;24.20;99.90
17421;DHT22;8828;48.800;9.540;2022-07-29T15:16:48;24.20;99.90
17421;DHT22;8828;48.800;9.540;2022-07-29T15:19:18;24.10;99.90
17421;DHT22;8828;48.800;9.540;2022-07-29T15:21:46;24.10;99.90
17421;DHT22;8828;48.800;9.540;2022-07-29T15:24:15;24.10;99.90
17421;DHT22;8828;48.800;9.540;2022-07-29T15:26:44;24.10;99.90
17421;DHT22;8828;48.800;9.540;2022-07-29T15:29:13;24.00;99.90
17421;DHT22;8828;48.800;9.540;2022-07-29T15:31:42;24.00;99.90
17421;DHT22;8828;48.800;9.540;2022-07-29T15:34:10;24.00;99.90
17421;DHT22;8828;48.800;9.540;2022-07-29T15:36:38;24.00;99.90
17421;DHT22;8828;48.800;9.540;2022-07-29T15:39:22;24.00;99.90
17421;DHT22;8828;48.800;9.540;2022-07-29T15:41:51;24.00;99.90
17421;DHT22;8828;48.800;9.540;2022-07-29T15:44:19;24.00;99.90
17421;DHT22;8828;48.800;9.540;2022-07-29T15:46:48;23.90;99.90
17421;DHT22;8828;48.800;9.540;2022-07-29T15:49:33;23.90;99.90
17421;DHT22;8828;48.800;9.540;2022-07-29T15:52:17;23.90;99.90
17421;DHT22;8828;48.800;9.540;2022-07-29T15:54:52;23.90;99.90
17421;DHT22;8828;48.800;9.540;2022-07-29T15:57:22;23.90;99.90
17421;DHT22;8828;48.800;9.540;2022-07-29T15:59:51;23.90;99.90
17421;DHT22;8828;48.800;9.540;2022-07-29T16:02:19;23.90;99.90
17421;DHT22;8828;48.800;9.540;2022-07-29T16:04:47;23.90;99.90
17421;DHT22;8828;48.800;9.540;2022-07-29T16:07:15;23.90;99.90
17421;DHT22;8828;48.800;9.540;2022-07-29T16:09:43;23.90;99.90
17421;DHT22;8828;48.800;9.540;2022-07-29T16:12:19;23.90;99.90
17421;DHT22;8828;48.800;9.540;2022-07-29T16:14:49;23.90;99.90
17421;DHT22;8828;48.800;9.540;2022-07-29T16:17:18;23.90;99.90
17421;DHT22;8828;48.800;9.540;2022-07-29T16:19:47;24.00;99.90
17421;DHT22;8828;48.800;9.540;2022-07-29T16:22:15;24.00;99.90
17421;DHT22;8828;48.800;9.540;2022-07-29T16:24:43;24.00;99.90